Daten der privaten Wetterstation Blomberg/Lippe
Wetterdaten: aktuell Freitag, 03.07.2020 19:00
Datum Zeit Auentemp. Rel.Feuchte Luftdruck Regen Wind Richtung Richtung Windben
03.07.2020 19:00 19,9 C 68 % 1016,5 hPa 0,0 l/m 2,5 km/h (1 Bft) SW 224 14,6 km/h (3 Bft)
03.07.2020 18:45 19,8 C 67 % 1016,6 hPa 0,0 l/m 4,4 km/h (1 Bft) S-SW 213 16,5 km/h (3 Bft)
03.07.2020 18:30 19,8 C 68 % 1016,8 hPa 0,0 l/m 7,1 km/h (2 Bft) S-SO 161 21,9 km/h (4 Bft)
03.07.2020 18:15 20,2 C 70 % 1016,9 hPa 0,0 l/m 3,7 km/h (1 Bft) S-SW 195 18,3 km/h (3 Bft)
03.07.2020 18:00 19,6 C 71 % 1017,1 hPa 0,0 l/m 3,7 km/h (1 Bft) S 179 18,3 km/h (3 Bft)
03.07.2020 17:45 19,2 C 70 % 1017,2 hPa 0,0 l/m 5,6 km/h (2 Bft) S-SW 206 21,9 km/h (4 Bft)
03.07.2020 17:30 19,3 C 72 % 1017,3 hPa 0,0 l/m 3,2 km/h (1 Bft) S 186 16,5 km/h (3 Bft)
03.07.2020 17:15 19,6 C 71 % 1017,3 hPa 0,0 l/m 4,2 km/h (1 Bft) NW 309 16,5 km/h (3 Bft)
03.07.2020 17:00 19,3 C 76 % 1017,3 hPa 0,0 l/m 2,7 km/h (1 Bft) W 266 11,0 km/h (2 Bft)
03.07.2020 16:45 18,9 C 75 % 1017,4 hPa 0,0 l/m 4,1 km/h (1 Bft) SW 216 14,6 km/h (3 Bft)
03.07.2020 16:30 19,1 C 74 % 1017,4 hPa 0,0 l/m 3,3 km/h (1 Bft) W 277 12,8 km/h (3 Bft)
03.07.2020 16:15 18,8 C 73 % 1017,3 hPa 0,0 l/m 5,1 km/h (1 Bft) W-NW 300 21,9 km/h (4 Bft)
03.07.2020 16:00 19,2 C 73 % 1017,4 hPa 0,0 l/m 3,9 km/h (1 Bft) SW 228 14,6 km/h (3 Bft)
03.07.2020 15:45 18,9 C 74 % 1017,4 hPa 0,0 l/m 4,1 km/h (1 Bft) SW 223 18,3 km/h (3 Bft)
03.07.2020 15:30 18,7 C 76 % 1017,4 hPa 0,0 l/m 3,8 km/h (1 Bft) W-NW 288 18,3 km/h (3 Bft)
03.07.2020 15:15 18,2 C 76 % 1017,3 hPa 0,0 l/m 3,2 km/h (1 Bft) S-SW 209 16,5 km/h (3 Bft)
03.07.2020 15:00 18,3 C 77 % 1017,4 hPa 0,0 l/m 3,6 km/h (1 Bft) W 276 12,8 km/h (3 Bft)
03.07.2020 14:45 18,7 C 76 % 1017,4 hPa 0,0 l/m 3,1 km/h (1 Bft) S 188 14,6 km/h (3 Bft)
03.07.2020 14:30 17,9 C 78 % 1017,5 hPa 0,0 l/m 5,7 km/h (2 Bft) S-SO 167 16,5 km/h (3 Bft)
03.07.2020 14:15 18,5 C 76 % 1017,5 hPa 0,0 l/m 4,3 km/h (1 Bft) SW 220 16,5 km/h (3 Bft)
03.07.2020 14:00 18,5 C 76 % 1017,6 hPa 0,0 l/m 3,1 km/h (1 Bft) S-SW 211 14,6 km/h (3 Bft)
03.07.2020 13:45 18,2 C 76 % 1017,6 hPa 0,0 l/m 2,1 km/h (1 Bft) S 169 18,3 km/h (3 Bft)
03.07.2020 13:30 18,3 C 75 % 1017,7 hPa 0,0 l/m 3,7 km/h (1 Bft) W 271 18,3 km/h (3 Bft)
03.07.2020 13:15 17,8 C 77 % 1017,6 hPa 0,0 l/m 4,4 km/h (1 Bft) W 261 14,6 km/h (3 Bft)
03.07.2020 13:00 17,7 C 77 % 1017,5 hPa 0,0 l/m 4,4 km/h (1 Bft) W-NW 298 18,3 km/h (3 Bft)
03.07.2020 12:45 17,6 C 79 % 1017,5 hPa 0,0 l/m 3,5 km/h (1 Bft) W-NW 289 14,6 km/h (3 Bft)
03.07.2020 12:30 17,5 C 77 % 1017,3 hPa 0,0 l/m 4,8 km/h (1 Bft) NW 319 21,9 km/h (4 Bft)
03.07.2020 12:15 17,7 C 78 % 1017,2 hPa 0,0 l/m 4,4 km/h (1 Bft) W 273 18,3 km/h (3 Bft)
03.07.2020 12:00 17,2 C 82 % 1017,3 hPa 0,0 l/m 4,8 km/h (1 Bft) W-NW 298 23,8 km/h (4 Bft)
03.07.2020 11:45 16,8 C 85 % 1017,3 hPa 0,0 l/m 2,7 km/h (1 Bft) SW 218 14,6 km/h (3 Bft)
03.07.2020 11:30 16,2 C 88 % 1017,2 hPa 0,0 l/m 2,8 km/h (1 Bft) NW 325 12,8 km/h (3 Bft)
03.07.2020 11:16 16,4 C 85 % 1017,1 hPa 0,0 l/m 3,1 km/h (1 Bft) W-NW 302 16,5 km/h (3 Bft)
03.07.2020 11:00 16,8 C 87 % 1017,0 hPa 0,0 l/m 3,2 km/h (1 Bft) S-SW 198 18,3 km/h (3 Bft)
03.07.2020 10:45 16,0 C 89 % 1017,1 hPa 0,0 l/m 3,9 km/h (1 Bft) SW 218 16,5 km/h (3 Bft)
03.07.2020 10:30 15,7 C 91 % 1017,0 hPa 0,0 l/m 3,4 km/h (1 Bft) SW 217 16,5 km/h (3 Bft)
03.07.2020 10:15 14,9 C 92 % 1017,0 hPa 0,0 l/m 3,2 km/h (1 Bft) SW 234 16,5 km/h (3 Bft)
03.07.2020 10:00 14,7 C 92 % 1016,9 hPa 0,0 l/m 3,9 km/h (1 Bft) W 267 16,5 km/h (3 Bft)
03.07.2020 09:45 15,0 C 92 % 1016,8 hPa 0,0 l/m 1,6 km/h (1 Bft) NO 34 7,3 km/h (2 Bft)
03.07.2020 09:30 14,9 C 92 % 1016,8 hPa 0,0 l/m 1,9 km/h (1 Bft) W-NW 286 9,1 km/h (2 Bft)
03.07.2020 09:15 14,8 C 92 % 1016,7 hPa 0,0 l/m 2,0 km/h (1 Bft) S-SW 202 12,8 km/h (3 Bft)
03.07.2020 09:00 14,7 C 92 % 1016,6 hPa 0,0 l/m 2,1 km/h (1 Bft) W 265 12,8 km/h (3 Bft)
03.07.2020 08:45 14,9 C 92 % 1016,4 hPa 0,0 l/m 2,3 km/h (1 Bft) S 190 11,0 km/h (2 Bft)
03.07.2020 08:30 15,1 C 94 % 1016,5 hPa 0,0 l/m 1,9 km/h (1 Bft) NW 319 12,8 km/h (3 Bft)
03.07.2020 08:15 14,5 C 95 % 1016,4 hPa 0,0 l/m 2,1 km/h (1 Bft) W-NW 292 12,8 km/h (3 Bft)
03.07.2020 08:00 14,4 C 95 % 1016,3 hPa 0,0 l/m 0,5 km/h (0 Bft) S-SW 209 3,7 km/h (1 Bft)
03.07.2020 07:45 14,1 C 96 % 1016,2 hPa 0,0 l/m 0,8 km/h (0 Bft) S-SW 211 7,3 km/h (2 Bft)
03.07.2020 07:30 13,9 C 96 % 1016,0 hPa 0,0 l/m 1,5 km/h (1 Bft) SW 215 9,1 km/h (2 Bft)
03.07.2020 07:15 13,7 C 97 % 1015,9 hPa 0,0 l/m 1,8 km/h (1 Bft) S 170 9,1 km/h (2 Bft)
03.07.2020 07:00 13,5 C 97 % 1015,8 hPa 0,0 l/m 2,0 km/h (1 Bft) S-SW 200 7,3 km/h (2 Bft)
_ Min-Zeit 03:00 18:45 20:15 - 20:15 - - 23:30
Minimum _ 12,8 C 67 % 1011,9 hPa - 0,0 km/h (0 Bft) - - 0,0 km/h (0 Bft)
_ Max-Zeit 18:15 01:30 13:30 20:30 18:30 - - 12:00
Maximum _ 20,2 C 98 % 1017,7 hPa 0,2 l/m 7,1 km/h
S-SO (2 Bft)
- - 23,8 km/h
S (4 Bft)
Durchschnitt _ 15,5 C 89 % 1015,4 hPa #1,0 l/m 2,0 km/h (1 Bft) S - 9,6 km/h (2 Bft)
Wetterstation: Davis Vantage Pro2 Aktiv